createdAt,value
2023-04-18T00:12:54.890Z,12.30
2023-04-18T00:20:28.856Z,14.40
2023-04-18T00:28:04.376Z,12.87
2023-04-18T00:43:35.224Z,11.88
2023-04-18T00:51:11.034Z,10.98
2023-04-18T00:58:46.591Z,11.80
2023-04-18T01:06:20.864Z,10.95
2023-04-18T01:14:03.912Z,12.55
2023-04-18T01:21:41.938Z,11.18
2023-04-18T01:29:17.357Z,11.15
2023-04-18T01:36:51.305Z,11.57
2023-04-18T01:44:26.675Z,11.77
2023-04-18T01:52:01.021Z,10.90
2023-04-18T01:59:36.549Z,9.20
2023-04-18T02:07:10.764Z,9.95
2023-04-18T02:14:45.990Z,9.95
2023-04-18T02:22:20.162Z,11.00
2023-04-18T02:29:55.643Z,11.23
2023-04-18T02:37:29.620Z,9.75
2023-04-18T02:45:05.546Z,11.70
2023-04-18T02:52:39.331Z,10.88
2023-04-18T03:00:16.225Z,12.83
2023-04-18T03:07:50.268Z,12.43
2023-04-18T03:15:25.573Z,12.37
2023-04-18T03:22:59.727Z,10.52
2023-04-18T03:30:35.225Z,10.77
2023-04-18T03:38:09.342Z,11.98
2023-04-18T03:45:47.945Z,12.60
2023-04-18T03:53:22.005Z,12.32
2023-04-18T04:00:57.565Z,10.70
2023-04-18T04:08:31.565Z,11.55
2023-04-18T04:16:08.610Z,11.37
2023-04-18T04:23:43.200Z,12.75
2023-04-18T04:38:52.979Z,10.75
2023-04-18T04:46:30.922Z,11.13
2023-04-18T04:54:05.629Z,11.63
2023-04-18T05:01:40.999Z,11.57
2023-04-18T05:09:15.098Z,13.77
2023-04-18T05:16:50.482Z,11.33
2023-04-18T05:24:24.342Z,13.00
2023-04-18T05:31:59.759Z,13.73
2023-04-18T05:39:34.512Z,12.65
2023-04-18T05:47:09.959Z,12.57
2023-04-18T05:54:44.130Z,14.13
2023-04-18T06:02:19.569Z,14.07
2023-04-18T06:09:54.713Z,13.52
2023-04-18T06:17:30.317Z,11.70
2023-04-18T06:25:04.636Z,11.70
2023-04-18T06:32:40.530Z,11.48
2023-04-18T06:40:15.248Z,12.18
2023-04-18T06:55:25.793Z,11.63
2023-04-18T07:03:02.241Z,11.63
2023-04-18T07:10:36.268Z,10.80
2023-04-18T07:18:12.481Z,12.37
2023-04-18T07:25:49.588Z,11.60
2023-04-18T07:33:25.118Z,13.00
2023-04-18T07:40:59.723Z,11.80
2023-04-18T07:48:35.347Z,11.10
2023-04-18T07:56:09.195Z,11.18
2023-04-18T08:03:44.702Z,12.80
2023-04-18T08:11:18.798Z,11.85
2023-04-18T08:18:54.186Z,11.13
2023-04-18T08:26:28.394Z,12.18
2023-04-18T08:34:05.105Z,12.90
2023-04-18T08:41:39.225Z,11.45
2023-04-18T08:49:14.765Z,11.43
2023-04-18T08:56:49.197Z,11.18
2023-04-18T09:04:38.545Z,11.20
2023-04-18T09:12:14.510Z,11.63
2023-04-18T09:19:50.721Z,11.57
2023-04-18T09:27:25.861Z,13.77
2023-04-18T09:35:04.994Z,14.18
2023-04-18T09:42:39.033Z,13.93
2023-04-18T09:50:16.552Z,12.17
2023-04-18T09:57:53.924Z,12.10
2023-04-18T10:05:32.890Z,12.13
2023-04-18T10:13:08.537Z,12.23
2023-04-18T10:20:44.598Z,10.20
2023-04-18T10:28:21.055Z,9.80
2023-04-18T10:36:02.186Z,9.95
2023-04-18T10:44:14.764Z,11.90
2023-04-18T10:51:51.245Z,11.63
2023-04-18T10:59:26.871Z,11.60
2023-04-18T11:07:03.104Z,11.82
2023-04-18T11:14:43.828Z,12.05
2023-04-18T11:22:19.524Z,11.15
2023-04-18T11:29:54.467Z,10.75
2023-04-18T11:45:03.905Z,12.33
2023-04-18T11:52:41.212Z,11.73
2023-04-18T12:00:16.553Z,10.20
2023-04-18T12:07:52.208Z,10.63
2023-04-18T12:15:28.249Z,9.32
2023-04-18T12:23:04.509Z,9.82
2023-04-18T12:30:38.330Z,8.25
2023-04-18T12:38:13.777Z,8.50
2023-04-18T12:45:48.480Z,10.30
2023-04-18T12:53:24.119Z,9.10
2023-04-18T13:00:59.039Z,10.68
2023-04-18T13:16:09.395Z,12.77
2023-04-18T13:23:44.822Z,11.30
2023-04-18T13:31:18.702Z,13.00
2023-04-18T13:38:54.450Z,13.15
2023-04-18T13:46:29.118Z,12.35
2023-04-18T13:54:04.953Z,11.48
2023-04-18T14:01:39.345Z,12.52
2023-04-18T14:09:14.921Z,11.67
2023-04-18T14:16:49.001Z,13.15
2023-04-18T14:24:24.446Z,11.90
2023-04-18T14:31:58.365Z,10.93
2023-04-18T14:39:33.807Z,11.23
2023-04-18T14:47:07.846Z,10.88
2023-04-18T14:54:44.015Z,10.30
2023-04-18T15:02:18.210Z,10.48
2023-04-18T15:09:54.403Z,9.90
2023-04-18T15:17:29.342Z,9.20
2023-04-18T15:40:36.164Z,7.95
2023-04-18T15:48:10.107Z,7.15
2023-04-18T15:55:46.632Z,6.38
2023-04-18T16:03:21.003Z,6.00
2023-04-18T16:10:56.452Z,5.30
2023-04-18T16:18:30.696Z,5.22
2023-04-18T16:26:06.523Z,5.00
2023-04-18T16:33:40.609Z,4.15
2023-04-18T16:41:15.770Z,4.00
2023-04-18T16:48:51.805Z,4.15
2023-04-18T16:56:27.608Z,4.05
2023-04-18T17:04:01.413Z,3.35
2023-04-18T17:11:39.537Z,3.55
2023-04-18T17:19:13.974Z,3.50
2023-04-18T17:26:50.170Z,3.80
2023-04-18T17:34:24.253Z,3.58
2023-04-18T17:42:00.255Z,3.67
2023-04-18T17:49:35.060Z,3.72
2023-04-18T17:57:10.956Z,3.83
2023-04-18T18:04:44.997Z,3.75
2023-04-18T18:12:20.357Z,3.47
2023-04-18T18:19:54.211Z,3.63
2023-04-18T18:27:29.462Z,4.68
2023-04-18T18:35:05.606Z,4.63
2023-04-18T18:42:41.804Z,4.43
2023-04-18T18:50:15.631Z,4.35
2023-04-18T18:57:51.531Z,4.53
2023-04-18T19:05:25.838Z,4.55
2023-04-18T19:13:01.717Z,4.23
2023-04-18T19:20:35.649Z,4.35
2023-04-18T19:28:10.915Z,4.63
2023-04-18T19:35:44.725Z,4.10
2023-04-18T19:43:19.946Z,4.22
2023-04-18T19:50:53.770Z,3.60
2023-04-18T19:58:39.796Z,5.10
2023-04-18T20:06:14.269Z,4.25
2023-04-18T20:13:49.734Z,4.43
2023-04-18T20:21:23.780Z,4.20
2023-04-18T20:28:59.080Z,4.53
2023-04-18T20:36:34.427Z,4.97
2023-04-18T20:44:10.257Z,4.90
2023-04-18T20:51:44.114Z,4.15
2023-04-18T20:59:20.042Z,4.72
2023-04-18T21:06:54.195Z,4.75
2023-04-18T21:14:30.703Z,4.80
2023-04-18T21:22:04.617Z,5.60
2023-04-18T21:29:39.892Z,6.07
2023-04-18T21:37:13.746Z,5.63
2023-04-18T21:44:48.962Z,6.10
2023-04-18T21:52:22.879Z,5.60
2023-04-18T21:59:58.941Z,6.33
2023-04-18T22:07:34.183Z,6.13
2023-04-18T22:15:11.624Z,6.40
2023-04-18T22:22:45.720Z,5.55
2023-04-18T22:30:21.393Z,4.90
2023-04-18T22:37:56.375Z,5.18
2023-04-18T22:45:31.630Z,5.03
2023-04-18T22:53:06.153Z,4.90
2023-04-18T23:00:41.520Z,5.80
2023-04-18T23:08:18.806Z,4.28
2023-04-18T23:15:54.214Z,4.13
2023-04-18T23:23:28.196Z,3.95
2023-04-18T23:31:03.788Z,3.73
2023-04-18T23:38:38.537Z,3.55
2023-04-18T23:53:48.245Z,3.67
